Pine Ridge, KY

3:11 AM EDT on September 01, 2015 (GMT -0400)
RAWS | | Change Station
CLOSE
Current Station
Personal Weather Station
Location: Pine Ridge, KY
Elevation: 1299 ft
Nearby Weather Stations

Elev 1299 ft 37.78 °N, 83.63 °W | Updated 1 hour ago

Mostly Cloudy
Mostly Cloudy
70.0 °F
Feels Like 70.0 °F
N
0.0
Wind Variable Wind from North
Gusts 4.0 mph

Today
High -- | Low -- °F
--% Chance of Precip.
Yesterday
High -- | Low -- °F
Precip. -- in
7:04 AM 8:04 PM
Waning Gibbous, 91% visible
Pressure 30.10 in
Visibility 10.0 miles
Clouds Mostly Cloudy 10000 ft
Dew Point 64.0 °F
Humidity 80%
Rainfall in
Snow Depth Not available.
UV 0 out of 12
Pollen 8.80 out of 12
Air Quality Not available.
Flu Activity Not available.
METAR KJKL 010653Z AUTO 00000KT 10SM BKN100 21/18 A3014 RMK AO2 SLP191 T02060183
Pressure 30.10 in
Visibility 10.0 miles
Clouds Mostly Cloudy 10000 ft
Dew Point 64.0 °F
Humidity 80%
Rainfall in
Snow Depth Not available.
UV 0 out of 12
Pollen 8.80 out of 12
Air Quality Not available.
Flu Activity Not available.
METAR KJKL 010653Z AUTO 00000KT 10SM BKN100 21/18 A3014 RMK AO2 SLP191 T02060183

10-Day Weather Forecast

×

Almanac

Astronomy

Sep. 01, 2015 Rise Set
Actual Time
Civil Twilight
Nautical Twilight
Astronomical Twilight
Moon
Length of Visible Light
Length of Day
Tomorrow will be .
, % of the Moon is Illuminated

Today's Extremes

State Highs State Lows

Community

WunderPhotos

Upload Photos

1,851,488 photos uploaded!

WunderBlogs® & News

Nearby

Air Quality

  Air Quality AQ Index Pollutant
Not available.

Snow Depth

Station Depth Elevation

Earthquake Activity

City Distance Mag. Time & Date
Minimum magnitude displayed is 2.5.

Coastal Water Temperatures

Place Temperature

Stations

Nearby Weather Stations

Station Location Temp. Windchill Dew Point Humidity Wind Precip. Elev Updated Type